sensor_id;sensor_type;location;lat;lon;timestamp;P1;durP1;ratioP1;P2;durP2;ratioP2
60873;SDS011;46715;40.642;-7.920;2023-02-23T00:01:28;7.97;;;7.13;;
60873;SDS011;46715;40.642;-7.920;2023-02-23T00:03:29;8.65;;;7.00;;
60873;SDS011;46715;40.642;-7.920;2023-02-23T00:05:31;9.33;;;6.83;;
60873;SDS011;46715;40.642;-7.920;2023-02-23T00:07:35;8.35;;;7.13;;
60873;SDS011;46715;40.642;-7.920;2023-02-23T00:09:36;8.47;;;6.53;;
60873;SDS011;46715;40.642;-7.920;2023-02-23T00:11:37;9.90;;;7.33;;
60873;SDS011;46715;40.642;-7.920;2023-02-23T00:13:39;8.80;;;7.70;;
60873;SDS011;46715;40.642;-7.920;2023-02-23T00:15:41;9.27;;;7.72;;
60873;SDS011;46715;40.642;-7.920;2023-02-23T00:17:42;8.25;;;7.30;;
60873;SDS011;46715;40.642;-7.920;2023-02-23T00:19:45;9.93;;;7.97;;
60873;SDS011;46715;40.642;-7.920;2023-02-23T00:21:47;10.43;;;7.65;;
60873;SDS011;46715;40.642;-7.920;2023-02-23T00:23:48;9.37;;;6.53;;
60873;SDS011;46715;40.642;-7.920;2023-02-23T00:25:54;9.70;;;7.80;;
60873;SDS011;46715;40.642;-7.920;2023-02-23T00:27:58;8.70;;;7.03;;
60873;SDS011;46715;40.642;-7.920;2023-02-23T00:29:59;9.73;;;7.57;;
60873;SDS011;46715;40.642;-7.920;2023-02-23T00:32:00;8.60;;;7.33;;
60873;SDS011;46715;40.642;-7.920;2023-02-23T00:34:02;8.98;;;7.25;;
60873;SDS011;46715;40.642;-7.920;2023-02-23T00:36:07;8.80;;;6.43;;
60873;SDS011;46715;40.642;-7.920;2023-02-23T00:38:13;8.57;;;6.57;;
60873;SDS011;46715;40.642;-7.920;2023-02-23T00:40:14;7.53;;;6.73;;
60873;SDS011;46715;40.642;-7.920;2023-02-23T00:42:17;7.22;;;6.32;;
60873;SDS011;46715;40.642;-7.920;2023-02-23T00:44:18;8.53;;;6.13;;
60873;SDS011;46715;40.642;-7.920;2023-02-23T00:46:22;8.35;;;7.03;;
60873;SDS011;46715;40.642;-7.920;2023-02-23T00:48:26;7.22;;;5.97;;
60873;SDS011;46715;40.642;-7.920;2023-02-23T00:52:28;7.40;;;6.00;;
60873;SDS011;46715;40.642;-7.920;2023-02-23T00:54:30;9.55;;;6.38;;
60873;SDS011;46715;40.642;-7.920;2023-02-23T00:56:31;8.13;;;6.63;;
60873;SDS011;46715;40.642;-7.920;2023-02-23T00:58:32;7.60;;;6.57;;
60873;SDS011;46715;40.642;-7.920;2023-02-23T01:00:33;7.45;;;6.13;;
60873;SDS011;46715;40.642;-7.920;2023-02-23T01:02:41;8.02;;;6.53;;
60873;SDS011;46715;40.642;-7.920;2023-02-23T01:04:43;6.50;;;5.63;;
60873;SDS011;46715;40.642;-7.920;2023-02-23T01:06:44;8.25;;;5.88;;
60873;SDS011;46715;40.642;-7.920;2023-02-23T01:08:46;6.70;;;5.50;;
60873;SDS011;46715;40.642;-7.920;2023-02-23T01:10:52;6.82;;;6.13;;
60873;SDS011;46715;40.642;-7.920;2023-02-23T01:12:53;7.73;;;5.90;;
60873;SDS011;46715;40.642;-7.920;2023-02-23T01:14:54;8.00;;;6.00;;
60873;SDS011;46715;40.642;-7.920;2023-02-23T01:16:54;6.93;;;6.17;;
60873;SDS011;46715;40.642;-7.920;2023-02-23T01:18:57;7.15;;;6.45;;
60873;SDS011;46715;40.642;-7.920;2023-02-23T01:21:00;7.45;;;6.15;;
60873;SDS011;46715;40.642;-7.920;2023-02-23T01:25:03;8.48;;;6.00;;
60873;SDS011;46715;40.642;-7.920;2023-02-23T01:27:06;9.23;;;6.55;;
60873;SDS011;46715;40.642;-7.920;2023-02-23T01:29:11;6.53;;;5.80;;
60873;SDS011;46715;40.642;-7.920;2023-02-23T01:31:14;7.68;;;6.20;;
60873;SDS011;46715;40.642;-7.920;2023-02-23T01:33:15;8.37;;;6.20;;
60873;SDS011;46715;40.642;-7.920;2023-02-23T01:35:17;7.45;;;6.38;;
60873;SDS011;46715;40.642;-7.920;2023-02-23T01:37:18;6.77;;;5.47;;
60873;SDS011;46715;40.642;-7.920;2023-02-23T01:39:19;5.80;;;5.20;;
60873;SDS011;46715;40.642;-7.920;2023-02-23T01:41:20;7.15;;;5.22;;
60873;SDS011;46715;40.642;-7.920;2023-02-23T01:43:22;6.30;;;5.57;;
60873;SDS011;46715;40.642;-7.920;2023-02-23T01:47:28;7.03;;;5.68;;
60873;SDS011;46715;40.642;-7.920;2023-02-23T01:51:36;6.95;;;5.32;;
60873;SDS011;46715;40.642;-7.920;2023-02-23T01:53:43;7.03;;;5.40;;
60873;SDS011;46715;40.642;-7.920;2023-02-23T01:55:48;13.27;;;5.80;;
60873;SDS011;46715;40.642;-7.920;2023-02-23T01:57:58;12.45;;;5.30;;
60873;SDS011;46715;40.642;-7.920;2023-02-23T02:00:07;7.15;;;5.80;;
60873;SDS011;46715;40.642;-7.920;2023-02-23T02:02:13;8.40;;;5.65;;
60873;SDS011;46715;40.642;-7.920;2023-02-23T02:04:17;8.05;;;5.15;;
60873;SDS011;46715;40.642;-7.920;2023-02-23T02:06:20;6.68;;;5.43;;
60873;SDS011;46715;40.642;-7.920;2023-02-23T02:08:30;5.82;;;5.22;;
60873;SDS011;46715;40.642;-7.920;2023-02-23T02:10:33;6.80;;;5.38;;
60873;SDS011;46715;40.642;-7.920;2023-02-23T02:12:49;5.80;;;5.10;;
60873;SDS011;46715;40.642;-7.920;2023-02-23T02:14:54;6.60;;;5.03;;
60873;SDS011;46715;40.642;-7.920;2023-02-23T02:24:00;6.88;;;4.88;;
60873;SDS011;46715;40.642;-7.920;2023-02-23T02:26:20;6.30;;;4.60;;
60873;SDS011;46715;40.642;-7.920;2023-02-23T02:30:54;8.23;;;5.05;;
60873;SDS011;46715;40.642;-7.920;2023-02-23T02:38:20;6.13;;;4.72;;
60873;SDS011;46715;40.642;-7.920;2023-02-23T02:43:11;5.18;;;4.47;;
60873;SDS011;46715;40.642;-7.920;2023-02-23T02:45:31;7.28;;;5.10;;
60873;SDS011;46715;40.642;-7.920;2023-02-23T02:47:48;5.22;;;4.65;;
60873;SDS011;46715;40.642;-7.920;2023-02-23T02:50:07;6.30;;;5.03;;
60873;SDS011;46715;40.642;-7.920;2023-02-23T02:56:25;7.72;;;4.63;;
60873;SDS011;46715;40.642;-7.920;2023-02-23T02:58:27;6.78;;;3.88;;
60873;SDS011;46715;40.642;-7.920;2023-02-23T03:00:31;4.65;;;3.65;;
60873;SDS011;46715;40.642;-7.920;2023-02-23T03:02:55;5.43;;;4.00;;
60873;SDS011;46715;40.642;-7.920;2023-02-23T03:05:17;4.75;;;4.13;;
60873;SDS011;46715;40.642;-7.920;2023-02-23T03:07:41;5.88;;;3.40;;
60873;SDS011;46715;40.642;-7.920;2023-02-23T03:10:13;6.53;;;4.00;;
60873;SDS011;46715;40.642;-7.920;2023-02-23T03:18:27;5.63;;;3.50;;
60873;SDS011;46715;40.642;-7.920;2023-02-23T03:20:53;6.00;;;3.08;;
60873;SDS011;46715;40.642;-7.920;2023-02-23T03:31:39;3.55;;;2.95;;
60873;SDS011;46715;40.642;-7.920;2023-02-23T03:36:38;7.18;;;2.60;;
60873;SDS011;46715;40.642;-7.920;2023-02-23T03:41:51;3.38;;;2.50;;
60873;SDS011;46715;40.642;-7.920;2023-02-23T03:44:33;5.30;;;2.83;;
60873;SDS011;46715;40.642;-7.920;2023-02-23T03:46:57;5.20;;;2.80;;
60873;SDS011;46715;40.642;-7.920;2023-02-23T03:49:21;3.63;;;2.53;;
60873;SDS011;46715;40.642;-7.920;2023-02-23T03:51:50;2.75;;;2.25;;
60873;SDS011;46715;40.642;-7.920;2023-02-23T03:54:18;3.63;;;2.22;;
60873;SDS011;46715;40.642;-7.920;2023-02-23T03:56:49;4.60;;;2.13;;
60873;SDS011;46715;40.642;-7.920;2023-02-23T04:01:33;4.80;;;2.30;;
60873;SDS011;46715;40.642;-7.920;2023-02-23T04:03:54;2.85;;;1.80;;
60873;SDS011;46715;40.642;-7.920;2023-02-23T04:06:16;3.20;;;1.70;;
60873;SDS011;46715;40.642;-7.920;2023-02-23T04:08:36;3.38;;;2.00;;
60873;SDS011;46715;40.642;-7.920;2023-02-23T04:10:59;3.28;;;2.17;;
60873;SDS011;46715;40.642;-7.920;2023-02-23T04:13:43;5.30;;;2.10;;
60873;SDS011;46715;40.642;-7.920;2023-02-23T04:15:59;2.95;;;2.10;;
60873;SDS011;46715;40.642;-7.920;2023-02-23T04:18:03;7.43;;;2.00;;
60873;SDS011;46715;40.642;-7.920;2023-02-23T04:20:05;3.15;;;1.98;;
60873;SDS011;46715;40.642;-7.920;2023-02-23T04:22:07;4.43;;;2.15;;
60873;SDS011;46715;40.642;-7.920;2023-02-23T04:24:09;4.83;;;2.20;;
60873;SDS011;46715;40.642;-7.920;2023-02-23T04:26:10;3.42;;;2.42;;
60873;SDS011;46715;40.642;-7.920;2023-02-23T04:28:10;3.50;;;1.90;;
60873;SDS011;46715;40.642;-7.920;2023-02-23T04:30:12;4.55;;;2.47;;
60873;SDS011;46715;40.642;-7.920;2023-02-23T04:32:14;4.43;;;2.50;;
60873;SDS011;46715;40.642;-7.920;2023-02-23T04:34:18;4.07;;;2.17;;
60873;SDS011;46715;40.642;-7.920;2023-02-23T04:36:18;3.90;;;2.17;;
60873;SDS011;46715;40.642;-7.920;2023-02-23T04:38:19;3.72;;;2.67;;
60873;SDS011;46715;40.642;-7.920;2023-02-23T04:40:21;4.60;;;2.30;;
60873;SDS011;46715;40.642;-7.920;2023-02-23T04:42:22;3.83;;;2.53;;
60873;SDS011;46715;40.642;-7.920;2023-02-23T04:44:23;7.67;;;2.57;;
60873;SDS011;46715;40.642;-7.920;2023-02-23T04:46:24;5.13;;;2.40;;
60873;SDS011;46715;40.642;-7.920;2023-02-23T04:48:25;2.58;;;2.25;;
60873;SDS011;46715;40.642;-7.920;2023-02-23T04:50:27;5.05;;;2.80;;
60873;SDS011;46715;40.642;-7.920;2023-02-23T04:52:28;6.40;;;2.50;;
60873;SDS011;46715;40.642;-7.920;2023-02-23T04:54:29;5.53;;;2.10;;
60873;SDS011;46715;40.642;-7.920;2023-02-23T04:56:30;3.70;;;2.08;;
60873;SDS011;46715;40.642;-7.920;2023-02-23T04:58:31;2.88;;;2.10;;
60873;SDS011;46715;40.642;-7.920;2023-02-23T05:00:32;4.73;;;2.53;;
60873;SDS011;46715;40.642;-7.920;2023-02-23T05:02:33;3.92;;;2.08;;
60873;SDS011;46715;40.642;-7.920;2023-02-23T05:04:34;4.30;;;2.10;;
60873;SDS011;46715;40.642;-7.920;2023-02-23T05:06:35;5.32;;;1.92;;
60873;SDS011;46715;40.642;-7.920;2023-02-23T05:08:37;4.78;;;1.90;;
60873;SDS011;46715;40.642;-7.920;2023-02-23T05:10:37;2.87;;;1.77;;
60873;SDS011;46715;40.642;-7.920;2023-02-23T05:12:38;4.60;;;2.07;;
60873;SDS011;46715;40.642;-7.920;2023-02-23T05:14:39;3.30;;;1.93;;
60873;SDS011;46715;40.642;-7.920;2023-02-23T05:16:40;7.93;;;1.77;;
60873;SDS011;46715;40.642;-7.920;2023-02-23T05:18:41;2.83;;;1.53;;
60873;SDS011;46715;40.642;-7.920;2023-02-23T05:20:42;2.50;;;1.60;;
60873;SDS011;46715;40.642;-7.920;2023-02-23T05:22:46;5.43;;;1.48;;
60873;SDS011;46715;40.642;-7.920;2023-02-23T05:24:47;6.27;;;1.90;;
60873;SDS011;46715;40.642;-7.920;2023-02-23T05:26:54;5.63;;;1.90;;
60873;SDS011;46715;40.642;-7.920;2023-02-23T05:28:55;3.70;;;1.80;;
60873;SDS011;46715;40.642;-7.920;2023-02-23T05:30:56;8.93;;;3.20;;
60873;SDS011;46715;40.642;-7.920;2023-02-23T05:32:57;5.43;;;1.80;;
60873;SDS011;46715;40.642;-7.920;2023-02-23T05:34:58;5.65;;;1.77;;
60873;SDS011;46715;40.642;-7.920;2023-02-23T05:36:59;4.75;;;1.60;;
60873;SDS011;46715;40.642;-7.920;2023-02-23T05:38:59;4.82;;;1.55;;
60873;SDS011;46715;40.642;-7.920;2023-02-23T05:41:04;2.65;;;2.10;;
60873;SDS011;46715;40.642;-7.920;2023-02-23T05:43:06;3.25;;;1.60;;
60873;SDS011;46715;40.642;-7.920;2023-02-23T05:45:07;4.80;;;2.27;;
60873;SDS011;46715;40.642;-7.920;2023-02-23T05:47:08;6.72;;;2.08;;
60873;SDS011;46715;40.642;-7.920;2023-02-23T05:51:12;3.42;;;1.60;;
60873;SDS011;46715;40.642;-7.920;2023-02-23T05:53:14;4.43;;;1.58;;
60873;SDS011;46715;40.642;-7.920;2023-02-23T05:55:15;4.50;;;2.10;;
60873;SDS011;46715;40.642;-7.920;2023-02-23T05:57:16;6.67;;;2.03;;
60873;SDS011;46715;40.642;-7.920;2023-02-23T05:59:17;6.83;;;1.80;;
60873;SDS011;46715;40.642;-7.920;2023-02-23T06:01:18;5.80;;;1.70;;
60873;SDS011;46715;40.642;-7.920;2023-02-23T06:03:20;4.28;;;1.90;;
60873;SDS011;46715;40.642;-7.920;2023-02-23T06:05:21;4.65;;;1.90;;
60873;SDS011;46715;40.642;-7.920;2023-02-23T06:07:23;5.63;;;1.90;;
60873;SDS011;46715;40.642;-7.920;2023-02-23T06:09:23;5.43;;;3.00;;
60873;SDS011;46715;40.642;-7.920;2023-02-23T06:11:24;3.00;;;1.58;;
60873;SDS011;46715;40.642;-7.920;2023-02-23T06:13:25;5.67;;;2.03;;
60873;SDS011;46715;40.642;-7.920;2023-02-23T06:15:27;5.38;;;1.45;;
60873;SDS011;46715;40.642;-7.920;2023-02-23T06:17:28;6.40;;;1.97;;
60873;SDS011;46715;40.642;-7.920;2023-02-23T06:19:30;4.18;;;1.73;;
60873;SDS011;46715;40.642;-7.920;2023-02-23T06:21:31;3.20;;;1.50;;
60873;SDS011;46715;40.642;-7.920;2023-02-23T06:23:33;8.20;;;1.50;;
60873;SDS011;46715;40.642;-7.920;2023-02-23T06:25:33;5.13;;;1.83;;
60873;SDS011;46715;40.642;-7.920;2023-02-23T06:27:35;8.82;;;1.98;;
60873;SDS011;46715;40.642;-7.920;2023-02-23T06:29:35;8.70;;;1.70;;
60873;SDS011;46715;40.642;-7.920;2023-02-23T06:31:37;3.03;;;1.55;;
60873;SDS011;46715;40.642;-7.920;2023-02-23T06:33:38;6.70;;;1.70;;
60873;SDS011;46715;40.642;-7.920;2023-02-23T06:35:39;4.27;;;1.70;;
60873;SDS011;46715;40.642;-7.920;2023-02-23T06:37:40;4.43;;;1.40;;
60873;SDS011;46715;40.642;-7.920;2023-02-23T06:39:41;7.90;;;2.47;;
60873;SDS011;46715;40.642;-7.920;2023-02-23T06:41:41;5.60;;;1.37;;
60873;SDS011;46715;40.642;-7.920;2023-02-23T06:43:42;4.20;;;1.60;;
60873;SDS011;46715;40.642;-7.920;2023-02-23T06:45:44;6.57;;;1.83;;
60873;SDS011;46715;40.642;-7.920;2023-02-23T06:47:46;4.45;;;1.58;;
60873;SDS011;46715;40.642;-7.920;2023-02-23T06:49:47;8.07;;;1.80;;
60873;SDS011;46715;40.642;-7.920;2023-02-23T06:51:48;3.30;;;1.47;;
60873;SDS011;46715;40.642;-7.920;2023-02-23T06:53:48;4.25;;;1.42;;
60873;SDS011;46715;40.642;-7.920;2023-02-23T06:55:51;3.88;;;1.30;;
60873;SDS011;46715;40.642;-7.920;2023-02-23T06:57:52;7.57;;;1.80;;
60873;SDS011;46715;40.642;-7.920;2023-02-23T06:59:53;4.53;;;1.77;;
60873;SDS011;46715;40.642;-7.920;2023-02-23T07:01:54;4.90;;;1.52;;
60873;SDS011;46715;40.642;-7.920;2023-02-23T07:03:56;7.15;;;2.03;;
60873;SDS011;46715;40.642;-7.920;2023-02-23T07:05:56;4.53;;;1.80;;
60873;SDS011;46715;40.642;-7.920;2023-02-23T07:07:58;3.15;;;1.55;;
60873;SDS011;46715;40.642;-7.920;2023-02-23T07:09:58;5.37;;;1.47;;
60873;SDS011;46715;40.642;-7.920;2023-02-23T07:11:59;5.68;;;1.52;;
60873;SDS011;46715;40.642;-7.920;2023-02-23T07:14:00;5.72;;;1.80;;
60873;SDS011;46715;40.642;-7.920;2023-02-23T07:16:02;3.00;;;1.73;;
60873;SDS011;46715;40.642;-7.920;2023-02-23T07:18:03;30.73;;;13.77;;
60873;SDS011;46715;40.642;-7.920;2023-02-23T07:20:04;4.38;;;2.38;;
60873;SDS011;46715;40.642;-7.920;2023-02-23T07:22:05;7.20;;;1.70;;
60873;SDS011;46715;40.642;-7.920;2023-02-23T07:24:06;5.57;;;1.60;;
60873;SDS011;46715;40.642;-7.920;2023-02-23T07:26:08;2.22;;;1.20;;
60873;SDS011;46715;40.642;-7.920;2023-02-23T07:28:09;3.72;;;1.50;;
60873;SDS011;46715;40.642;-7.920;2023-02-23T07:30:13;8.82;;;1.85;;
60873;SDS011;46715;40.642;-7.920;2023-02-23T07:32:15;5.45;;;1.55;;
60873;SDS011;46715;40.642;-7.920;2023-02-23T07:34:16;5.00;;;1.95;;
60873;SDS011;46715;40.642;-7.920;2023-02-23T07:36:17;2.40;;;1.35;;
60873;SDS011;46715;40.642;-7.920;2023-02-23T07:38:18;6.40;;;1.70;;
60873;SDS011;46715;40.642;-7.920;2023-02-23T07:40:19;7.13;;;2.90;;
60873;SDS011;46715;40.642;-7.920;2023-02-23T07:42:19;3.90;;;1.53;;
60873;SDS011;46715;40.642;-7.920;2023-02-23T07:44:20;7.30;;;1.73;;
60873;SDS011;46715;40.642;-7.920;2023-02-23T07:46:21;4.67;;;1.57;;
60873;SDS011;46715;40.642;-7.920;2023-02-23T07:48:22;7.00;;;1.63;;
60873;SDS011;46715;40.642;-7.920;2023-02-23T07:50:23;5.00;;;1.80;;
60873;SDS011;46715;40.642;-7.920;2023-02-23T07:52:24;4.93;;;1.50;;
60873;SDS011;46715;40.642;-7.920;2023-02-23T07:54:25;3.28;;;1.65;;
60873;SDS011;46715;40.642;-7.920;2023-02-23T07:56:27;2.33;;;1.30;;
60873;SDS011;46715;40.642;-7.920;2023-02-23T07:58:27;2.58;;;1.42;;
60873;SDS011;46715;40.642;-7.920;2023-02-23T08:00:30;2.38;;;1.60;;
60873;SDS011;46715;40.642;-7.920;2023-02-23T08:02:31;4.15;;;1.48;;
60873;SDS011;46715;40.642;-7.920;2023-02-23T08:04:32;6.13;;;1.50;;
60873;SDS011;46715;40.642;-7.920;2023-02-23T08:06:33;4.57;;;1.80;;
60873;SDS011;46715;40.642;-7.920;2023-02-23T08:08:34;4.20;;;1.60;;
60873;SDS011;46715;40.642;-7.920;2023-02-23T08:10:35;3.57;;;1.33;;
60873;SDS011;46715;40.642;-7.920;2023-02-23T08:12:37;4.28;;;1.65;;
60873;SDS011;46715;40.642;-7.920;2023-02-23T08:14:38;3.13;;;1.47;;
60873;SDS011;46715;40.642;-7.920;2023-02-23T08:16:39;4.18;;;3.63;;
60873;SDS011;46715;40.642;-7.920;2023-02-23T08:18:40;3.90;;;1.33;;
60873;SDS011;46715;40.642;-7.920;2023-02-23T08:20:41;3.67;;;1.43;;
60873;SDS011;46715;40.642;-7.920;2023-02-23T08:22:42;5.50;;;1.43;;
60873;SDS011;46715;40.642;-7.920;2023-02-23T08:24:43;4.80;;;1.10;;
60873;SDS011;46715;40.642;-7.920;2023-02-23T08:26:43;3.17;;;1.63;;
60873;SDS011;46715;40.642;-7.920;2023-02-23T08:28:44;4.25;;;1.50;;
60873;SDS011;46715;40.642;-7.920;2023-02-23T08:30:45;4.03;;;1.63;;
60873;SDS011;46715;40.642;-7.920;2023-02-23T08:32:46;6.80;;;1.43;;
60873;SDS011;46715;40.642;-7.920;2023-02-23T08:34:48;6.85;;;1.83;;
60873;SDS011;46715;40.642;-7.920;2023-02-23T08:36:49;4.95;;;1.98;;
60873;SDS011;46715;40.642;-7.920;2023-02-23T08:38:50;4.93;;;1.50;;
60873;SDS011;46715;40.642;-7.920;2023-02-23T08:40:51;3.78;;;1.27;;
60873;SDS011;46715;40.642;-7.920;2023-02-23T08:42:52;5.50;;;1.48;;
60873;SDS011;46715;40.642;-7.920;2023-02-23T08:44:56;3.13;;;1.33;;
60873;SDS011;46715;40.642;-7.920;2023-02-23T08:46:58;3.15;;;1.60;;
60873;SDS011;46715;40.642;-7.920;2023-02-23T08:49:00;4.38;;;1.30;;
60873;SDS011;46715;40.642;-7.920;2023-02-23T08:51:01;2.50;;;1.27;;
60873;SDS011;46715;40.642;-7.920;2023-02-23T08:53:02;4.03;;;1.77;;
60873;SDS011;46715;40.642;-7.920;2023-02-23T08:55:04;3.22;;;1.27;;
60873;SDS011;46715;40.642;-7.920;2023-02-23T08:57:06;2.97;;;1.17;;
60873;SDS011;46715;40.642;-7.920;2023-02-23T08:59:07;2.10;;;1.17;;
60873;SDS011;46715;40.642;-7.920;2023-02-23T09:01:14;3.85;;;1.50;;
60873;SDS011;46715;40.642;-7.920;2023-02-23T09:03:21;3.35;;;1.42;;
60873;SDS011;46715;40.642;-7.920;2023-02-23T09:07:23;8.80;;;2.05;;
60873;SDS011;46715;40.642;-7.920;2023-02-23T09:09:30;5.32;;;1.58;;
60873;SDS011;46715;40.642;-7.920;2023-02-23T09:11:33;6.15;;;2.30;;
60873;SDS011;46715;40.642;-7.920;2023-02-23T09:13:34;3.70;;;1.87;;
60873;SDS011;46715;40.642;-7.920;2023-02-23T09:15:35;6.65;;;2.22;;
60873;SDS011;46715;40.642;-7.920;2023-02-23T09:17:39;6.45;;;2.28;;
60873;SDS011;46715;40.642;-7.920;2023-02-23T09:19:44;6.55;;;2.25;;
60873;SDS011;46715;40.642;-7.920;2023-02-23T09:21:45;3.43;;;1.83;;
60873;SDS011;46715;40.642;-7.920;2023-02-23T09:23:45;4.03;;;1.63;;
60873;SDS011;46715;40.642;-7.920;2023-02-23T09:25:51;4.18;;;1.67;;
60873;SDS011;46715;40.642;-7.920;2023-02-23T09:27:53;2.67;;;1.58;;
60873;SDS011;46715;40.642;-7.920;2023-02-23T09:29:59;7.13;;;1.70;;
60873;SDS011;46715;40.642;-7.920;2023-02-23T09:32:03;6.38;;;1.60;;
60873;SDS011;46715;40.642;-7.920;2023-02-23T09:34:09;3.92;;;1.65;;
60873;SDS011;46715;40.642;-7.920;2023-02-23T09:36:15;3.40;;;1.30;;
60873;SDS011;46715;40.642;-7.920;2023-02-23T09:38:21;3.92;;;1.00;;
60873;SDS011;46715;40.642;-7.920;2023-02-23T09:40:26;3.05;;;1.42;;
60873;SDS011;46715;40.642;-7.920;2023-02-23T09:47:24;1.35;;;0.90;;
60873;SDS011;46715;40.642;-7.920;2023-02-23T09:49:27;2.40;;;1.23;;
60873;SDS011;46715;40.642;-7.920;2023-02-23T09:51:36;7.22;;;1.70;;
60873;SDS011;46715;40.642;-7.920;2023-02-23T09:53:47;3.60;;;1.20;;
60873;SDS011;46715;40.642;-7.920;2023-02-23T09:55:52;2.78;;;0.85;;
60873;SDS011;46715;40.642;-7.920;2023-02-23T09:58:02;3.72;;;1.13;;
60873;SDS011;46715;40.642;-7.920;2023-02-23T10:05:07;5.70;;;1.50;;
60873;SDS011;46715;40.642;-7.920;2023-02-23T10:09:21;3.97;;;1.47;;
60873;SDS011;46715;40.642;-7.920;2023-02-23T10:11:56;4.78;;;1.65;;
60873;SDS011;46715;40.642;-7.920;2023-02-23T10:16:44;3.53;;;1.88;;
60873;SDS011;46715;40.642;-7.920;2023-02-23T10:18:58;4.03;;;1.70;;
60873;SDS011;46715;40.642;-7.920;2023-02-23T10:21:11;5.43;;;1.50;;
60873;SDS011;46715;40.642;-7.920;2023-02-23T10:23:18;5.68;;;2.20;;
60873;SDS011;46715;40.642;-7.920;2023-02-23T10:25:34;3.65;;;1.60;;
60873;SDS011;46715;40.642;-7.920;2023-02-23T10:27:46;6.60;;;2.00;;
60873;SDS011;46715;40.642;-7.920;2023-02-23T10:29:55;1.85;;;1.10;;
60873;SDS011;46715;40.642;-7.920;2023-02-23T10:32:01;6.50;;;1.80;;
60873;SDS011;46715;40.642;-7.920;2023-02-23T10:34:14;3.17;;;1.05;;
60873;SDS011;46715;40.642;-7.920;2023-02-23T10:36:17;3.78;;;1.33;;
60873;SDS011;46715;40.642;-7.920;2023-02-23T10:38:35;3.08;;;1.55;;
60873;SDS011;46715;40.642;-7.920;2023-02-23T10:40:35;2.23;;;1.87;;
60873;SDS011;46715;40.642;-7.920;2023-02-23T10:42:37;3.70;;;1.23;;
60873;SDS011;46715;40.642;-7.920;2023-02-23T10:44:38;2.75;;;1.40;;
60873;SDS011;46715;40.642;-7.920;2023-02-23T10:47:07;5.75;;;1.58;;
60873;SDS011;46715;40.642;-7.920;2023-02-23T10:51:58;4.18;;;1.20;;
60873;SDS011;46715;40.642;-7.920;2023-02-23T10:54:55;7.28;;;2.22;;
60873;SDS011;46715;40.642;-7.920;2023-02-23T10:56:57;3.53;;;1.40;;
60873;SDS011;46715;40.642;-7.920;2023-02-23T10:58:58;4.70;;;1.85;;
60873;SDS011;46715;40.642;-7.920;2023-02-23T11:01:00;5.70;;;1.67;;
60873;SDS011;46715;40.642;-7.920;2023-02-23T11:03:02;4.35;;;1.17;;
60873;SDS011;46715;40.642;-7.920;2023-02-23T11:05:28;3.55;;;1.55;;
60873;SDS011;46715;40.642;-7.920;2023-02-23T11:07:44;3.47;;;1.20;;
60873;SDS011;46715;40.642;-7.920;2023-02-23T11:09:52;8.30;;;1.58;;
60873;SDS011;46715;40.642;-7.920;2023-02-23T11:13:57;4.30;;;1.17;;
60873;SDS011;46715;40.642;-7.920;2023-02-23T11:16:08;3.07;;;1.20;;
60873;SDS011;46715;40.642;-7.920;2023-02-23T11:18:20;4.10;;;1.30;;
60873;SDS011;46715;40.642;-7.920;2023-02-23T11:20:32;4.22;;;1.50;;
60873;SDS011;46715;40.642;-7.920;2023-02-23T11:22:41;3.20;;;1.25;;
60873;SDS011;46715;40.642;-7.920;2023-02-23T11:24:42;2.00;;;1.15;;
60873;SDS011;46715;40.642;-7.920;2023-02-23T11:26:44;4.43;;;1.08;;
60873;SDS011;46715;40.642;-7.920;2023-02-23T11:28:47;4.13;;;1.55;;
60873;SDS011;46715;40.642;-7.920;2023-02-23T11:30:53;3.35;;;1.70;;
60873;SDS011;46715;40.642;-7.920;2023-02-23T11:32:55;4.77;;;1.50;;
60873;SDS011;46715;40.642;-7.920;2023-02-23T11:37:30;1.33;;;1.00;;
60873;SDS011;46715;40.642;-7.920;2023-02-23T11:39:32;5.28;;;1.60;;
60873;SDS011;46715;40.642;-7.920;2023-02-23T11:43:36;2.95;;;1.10;;
60873;SDS011;46715;40.642;-7.920;2023-02-23T11:45:46;2.13;;;1.10;;
60873;SDS011;46715;40.642;-7.920;2023-02-23T11:47:52;3.17;;;1.05;;
60873;SDS011;46715;40.642;-7.920;2023-02-23T11:49:58;3.00;;;1.25;;
60873;SDS011;46715;40.642;-7.920;2023-02-23T11:52:11;3.80;;;1.00;;
60873;SDS011;46715;40.642;-7.920;2023-02-23T11:54:33;3.97;;;1.10;;
60873;SDS011;46715;40.642;-7.920;2023-02-23T11:56:34;3.90;;;1.38;;
60873;SDS011;46715;40.642;-7.920;2023-02-23T11:58:43;4.40;;;1.45;;
60873;SDS011;46715;40.642;-7.920;2023-02-23T12:00:53;2.67;;;1.30;;
60873;SDS011;46715;40.642;-7.920;2023-02-23T12:02:59;7.22;;;2.22;;
60873;SDS011;46715;40.642;-7.920;2023-02-23T12:05:12;1.75;;;1.05;;
60873;SDS011;46715;40.642;-7.920;2023-02-23T12:07:24;4.65;;;1.30;;
60873;SDS011;46715;40.642;-7.920;2023-02-23T12:09:34;3.97;;;1.10;;
60873;SDS011;46715;40.642;-7.920;2023-02-23T12:11:37;6.45;;;1.25;;
60873;SDS011;46715;40.642;-7.920;2023-02-23T12:14:00;5.00;;;1.50;;
60873;SDS011;46715;40.642;-7.920;2023-02-23T12:16:26;2.30;;;1.42;;
60873;SDS011;46715;40.642;-7.920;2023-02-23T12:20:55;4.32;;;1.67;;
60873;SDS011;46715;40.642;-7.920;2023-02-23T12:23:11;2.60;;;1.33;;
60873;SDS011;46715;40.642;-7.920;2023-02-23T12:26:00;7.57;;;1.80;;
60873;SDS011;46715;40.642;-7.920;2023-02-23T12:28:25;6.55;;;1.73;;
60873;SDS011;46715;40.642;-7.920;2023-02-23T12:31:19;3.60;;;1.27;;
60873;SDS011;46715;40.642;-7.920;2023-02-23T12:33:43;4.30;;;1.95;;
60873;SDS011;46715;40.642;-7.920;2023-02-23T12:39:02;2.88;;;1.35;;
60873;SDS011;46715;40.642;-7.920;2023-02-23T12:41:17;4.90;;;1.77;;
60873;SDS011;46715;40.642;-7.920;2023-02-23T12:43:46;3.45;;;1.80;;
60873;SDS011;46715;40.642;-7.920;2023-02-23T12:45:53;5.35;;;2.42;;
60873;SDS011;46715;40.642;-7.920;2023-02-23T12:48:13;4.03;;;1.60;;
60873;SDS011;46715;40.642;-7.920;2023-02-23T12:50:41;3.65;;;1.85;;
60873;SDS011;46715;40.642;-7.920;2023-02-23T12:52:52;4.45;;;1.63;;
60873;SDS011;46715;40.642;-7.920;2023-02-23T12:55:05;3.47;;;1.90;;
60873;SDS011;46715;40.642;-7.920;2023-02-23T12:57:17;4.45;;;2.13;;
60873;SDS011;46715;40.642;-7.920;2023-02-23T13:07:01;5.13;;;1.90;;
60873;SDS011;46715;40.642;-7.920;2023-02-23T13:13:59;4.22;;;2.00;;
60873;SDS011;46715;40.642;-7.920;2023-02-23T13:16:29;7.15;;;1.77;;
60873;SDS011;46715;40.642;-7.920;2023-02-23T13:18:37;4.38;;;2.13;;
60873;SDS011;46715;40.642;-7.920;2023-02-23T13:21:25;4.53;;;1.92;;
60873;SDS011;46715;40.642;-7.920;2023-02-23T13:23:45;4.70;;;2.13;;
60873;SDS011;46715;40.642;-7.920;2023-02-23T13:31:18;3.65;;;2.00;;
60873;SDS011;46715;40.642;-7.920;2023-02-23T13:33:26;6.15;;;2.10;;
60873;SDS011;46715;40.642;-7.920;2023-02-23T13:35:39;4.60;;;2.40;;
60873;SDS011;46715;40.642;-7.920;2023-02-23T13:37:53;9.65;;;3.13;;
60873;SDS011;46715;40.642;-7.920;2023-02-23T13:47:05;2.88;;;1.60;;
60873;SDS011;46715;40.642;-7.920;2023-02-23T13:49:48;4.20;;;2.58;;
60873;SDS011;46715;40.642;-7.920;2023-02-23T13:52:02;5.43;;;2.22;;
60873;SDS011;46715;40.642;-7.920;2023-02-23T13:54:23;5.60;;;2.03;;
60873;SDS011;46715;40.642;-7.920;2023-02-23T13:56:32;3.63;;;2.10;;
60873;SDS011;46715;40.642;-7.920;2023-02-23T13:58:44;4.45;;;2.03;;
60873;SDS011;46715;40.642;-7.920;2023-02-23T14:03:19;3.95;;;2.13;;
60873;SDS011;46715;40.642;-7.920;2023-02-23T14:05:24;3.72;;;2.33;;
60873;SDS011;46715;40.642;-7.920;2023-02-23T14:07:30;4.40;;;1.80;;
60873;SDS011;46715;40.642;-7.920;2023-02-23T14:09:36;4.30;;;2.63;;
60873;SDS011;46715;40.642;-7.920;2023-02-23T14:11:46;4.95;;;1.75;;
60873;SDS011;46715;40.642;-7.920;2023-02-23T14:13:59;3.58;;;1.70;;
60873;SDS011;46715;40.642;-7.920;2023-02-23T14:16:14;6.10;;;2.25;;
60873;SDS011;46715;40.642;-7.920;2023-02-23T14:20:23;6.13;;;2.80;;
60873;SDS011;46715;40.642;-7.920;2023-02-23T14:23:04;4.68;;;1.90;;
60873;SDS011;46715;40.642;-7.920;2023-02-23T14:30:44;7.18;;;1.67;;
60873;SDS011;46715;40.642;-7.920;2023-02-23T14:32:52;3.92;;;1.77;;